Terminal Aerodrome Forecast
Issued by NWS

Home | Current Version | Previous Version | Text Only | Print | Product List | Glossary On
Versions: 1 2 3 4 5 6 7 8 9 10 11 12 13 14 15 16 17
000
FTUS45 KABQ 032300
TAFFMN
TAF
KFMN 032336Z 0400/0424 28012KT P6SM VCSH BKN070
     FM040400 30007KT P6SM SCT030 SCT080
     FM041900 29015G25KT P6SM FEW030 SCT070=

USA.gov is the U.S. government's official web portal to all federal, state and local government web resources and services.